Time;durP1;ratioP1;P1;durP2;ratioP2;P2;SDS_P1;SDS_P2;PMS_P1;PMS_P2;Temp;Humidity;BMP_temperature;BMP_pressure;BME280_temperature;BME280_humidity;BME280_pressure;Samples;Min_cycle;Max_cycle;Signal;HPM_P1;HPM_P2
2022/10/16 00:00:19;;;;;;;;;1.50;1.00;;;;;17.15;78.11;100807.03;5038322;28;45464;-44
2022/10/16 00:02:45;;;;;;;;;2.25;2.25;;;;;17.14;77.65;100794.56;5038457;28;45282;-45
2022/10/16 00:05:10;;;;;;;;;5.00;3.00;;;;;17.13;77.83;100809.06;5038478;28;45344;-47
2022/10/16 00:07:35;;;;;;;;;2.25;2.00;;;;;17.10;77.92;100806.72;5038261;28;45382;-44
2022/10/16 00:10:01;;;;;;;;;10.25;6.00;;;;;17.08;78.21;100819.53;5038035;28;45457;-46
2022/10/16 00:12:26;;;;;;;;;2.50;2.50;;;;;17.06;77.98;100823.41;5036955;28;45532;-48
2022/10/16 00:14:52;;;;;;;;;1.75;1.75;;;;;17.04;78.42;100815.56;5038345;28;45455;-45
2022/10/16 00:17:17;;;;;;;;;3.25;3.25;;;;;17.01;78.25;100812.41;5037654;28;46082;-47
2022/10/16 00:19:42;;;;;;;;;4.00;2.50;;;;;16.95;78.30;100824.75;5038181;28;45246;-45
2022/10/16 00:22:08;;;;;;;;;3.00;2.00;;;;;16.90;79.31;100828.00;5038126;28;45657;-47
2022/10/16 00:24:33;;;;;;;;;3.00;3.00;;;;;16.84;79.95;100830.56;5038184;28;45373;-45
2022/10/16 00:26:58;;;;;;;;;3.75;3.75;;;;;16.89;79.18;100841.59;5037618;28;47141;-47
2022/10/16 00:29:24;;;;;;;;;4.00;4.00;;;;;16.88;79.90;100823.81;5037998;28;45447;-47
2022/10/16 00:31:49;;;;;;;;;3.50;3.00;;;;;16.89;79.53;100839.75;5038118;28;45412;-45
2022/10/16 00:34:14;;;;;;;;;4.00;3.25;;;;;16.87;80.17;100822.16;5038023;28;45429;-48
2022/10/16 00:36:40;;;;;;;;;2.75;2.75;;;;;16.87;80.48;100830.22;5037740;28;45253;-47
2022/10/16 00:39:05;;;;;;;;;2.00;2.00;;;;;16.85;80.70;100829.56;5037579;28;45423;-46
2022/10/16 00:41:31;;;;;;;;;3.75;3.75;;;;;16.81;80.78;100830.94;5037755;28;45373;-45
2022/10/16 00:43:59;;;;;;;;;5.00;3.00;;;;;16.78;81.23;100834.84;5037863;28;45324;-46
2022/10/16 00:46:37;;;;;;;;;4.75;4.25;;;;;16.80;80.62;100845.41;5037331;28;46234;-47
2022/10/16 00:49:09;;;;;;;;;4.00;4.00;;;;;16.83;81.10;100850.41;5037436;28;45586;-46
2022/10/16 00:51:47;;;;;;;;;3.25;3.25;;;;;16.81;81.16;100853.28;5037779;28;45320;-48
2022/10/16 00:54:20;;;;;;;;;4.25;4.00;;;;;16.84;80.89;100854.75;5037807;28;45376;-45
2022/10/16 00:56:46;;;;;;;;;4.00;3.00;;;;;16.86;81.36;100852.72;5037065;28;46191;-49
2022/10/16 00:59:24;;;;;;;;;4.00;4.00;;;;;16.83;80.62;100842.34;5037197;28;45432;-45
2022/10/16 01:01:49;;;;;;;;;3.75;3.75;;;;;16.79;81.05;100841.06;5037172;28;45307;-45
2022/10/16 01:04:15;;;;;;;;;2.00;2.00;;;;;16.82;80.78;100846.06;5037604;28;45324;-48
2022/10/16 01:06:52;;;;;;;;;3.75;2.00;;;;;16.83;80.57;100837.81;5037118;28;46154;-46
2022/10/16 01:09:23;;;;;;;;;3.00;3.00;;;;;16.81;80.70;100830.94;5037296;28;45430;-46
2022/10/16 01:11:55;;;;;;;;;2.00;2.00;;;;;16.82;80.31;100825.41;5019368;28;45460;-45
2022/10/16 01:14:39;;;;;;;;;1.00;1.00;;;;;16.81;80.53;100839.00;5037240;28;45273;-49
2022/10/16 01:17:18;;;;;;;;;3.75;2.00;;;;;16.78;80.42;100845.59;5036926;28;47476;-45
2022/10/16 01:19:58;;;;;;;;;3.25;2.00;;;;;16.79;79.42;100855.31;5036964;28;45339;-46
2022/10/16 01:22:30;;;;;;;;;2.75;1.50;;;;;16.78;80.11;100852.81;5036799;28;45383;-47
2022/10/16 01:25:01;;;;;;;;;1.00;1.00;;;;;16.74;79.78;100851.53;5037291;28;45351;-45
2022/10/16 01:27:32;;;;;;;;;1.50;1.50;;;;;16.69;79.82;100852.88;5036667;28;45447;-46
2022/10/16 01:30:13;;;;;;;;;3.50;1.75;;;;;16.81;79.64;100863.19;5036905;28;45389;-45
2022/10/16 01:32:52;;;;;;;;;2.00;1.50;;;;;16.82;79.46;100875.63;5037212;28;45263;-44
2022/10/16 01:35:25;;;;;;;;;2.50;2.50;;;;;16.79;79.34;100862.53;5037067;28;45431;-45
2022/10/16 01:37:54;;;;;;;;;2.00;2.00;;;;;16.71;79.33;100861.56;5036824;28;45423;-44
2022/10/16 01:40:24;;;;;;;;;2.00;2.00;;;;;16.77;79.48;100869.94;5036767;28;45867;-45
2022/10/16 01:43:14;;;;;;;;;2.00;2.00;;;;;16.76;79.24;100858.34;5036587;28;45311;-47
2022/10/16 01:45:41;;;;;;;;;1.00;1.00;;;;;16.78;79.11;100858.19;4956007;28;45406;-45
2022/10/16 01:48:09;;;;;;;;;1.00;1.00;;;;;16.75;79.37;100848.63;4955496;28;45432;-45
2022/10/16 01:50:38;;;;;;;;;1.50;1.50;;;;;16.80;79.39;100856.97;4955413;28;45505;-45
2022/10/16 01:53:05;;;;;;;;;1.00;1.00;;;;;16.74;79.07;100859.59;4955796;28;45436;-48
2022/10/16 01:55:38;;;;;;;;;1.25;0.75;;;;;16.71;78.85;100864.25;4955566;28;45396;-47
2022/10/16 01:58:07;;;;;;;;;1.00;1.00;;;;;16.75;78.99;100878.19;4955370;28;46220;-48
2022/10/16 02:00:36;;;;;;;;;1.75;1.75;;;;;16.73;78.96;100856.06;4955458;28;45460;-45
2022/10/16 02:03:03;;;;;;;;;5.00;1.00;;;;;16.74;79.22;100862.25;4955724;28;45349;-45
2022/10/16 02:05:33;;;;;;;;;4.00;1.75;;;;;16.75;78.90;100858.56;4955724;28;45448;-45
2022/10/16 02:07:59;;;;;;;;;0.75;0.50;;;;;16.70;78.50;100859.06;4955367;28;47111;-45
2022/10/16 02:10:25;;;;;;;;;1.00;1.00;;;;;16.68;78.98;100866.47;4955219;28;45352;-47
2022/10/16 02:13:05;;;;;;;;;1.00;1.00;;;;;16.68;78.92;100858.41;4955352;28;45445;-48
2022/10/16 02:15:31;;;;;;;;;1.50;1.50;;;;;16.71;78.80;100853.50;4955636;28;45533;-46
2022/10/16 02:17:56;;;;;;;;;1.00;1.00;;;;;16.68;78.72;100861.94;4955426;28;45036;-46
2022/10/16 02:20:27;;;;;;;;;1.00;0.00;;;;;16.68;78.66;100869.16;4955337;28;45459;-46
2022/10/16 02:22:53;;;;;;;;;1.00;1.00;;;;;16.69;78.44;100876.22;5003987;28;45313;-47
2022/10/16 02:25:37;;;;;;;;;1.25;0.75;;;;;16.69;78.58;100874.38;5036481;28;45297;-47
2022/10/16 02:28:24;;;;;;;;;2.00;1.00;;;;;16.71;78.31;100868.78;5035890;28;45450;-45
2022/10/16 02:31:11;;;;;;;;;1.00;1.00;;;;;16.69;78.04;100855.56;5036034;28;46063;-46
2022/10/16 02:33:40;;;;;;;;;1.00;1.00;;;;;16.68;78.13;100859.25;5036188;28;45336;-46
2022/10/16 02:36:07;;;;;;;;;2.00;1.00;;;;;16.74;78.03;100878.38;5039059;28;45323;-46
2022/10/16 02:38:33;;;;;;;;;1.00;0.00;;;;;16.74;78.13;100876.53;5039507;28;46122;-48
2022/10/16 02:40:59;;;;;;;;;0.25;0.00;;;;;16.74;78.02;100878.38;5039611;28;45336;-48
2022/10/16 02:43:25;;;;;;;;;1.00;1.00;;;;;16.74;78.04;100881.06;5039654;28;45391;-47
2022/10/16 02:45:51;;;;;;;;;0.00;0.00;;;;;16.65;77.75;100859.63;5039128;28;45294;-49
2022/10/16 02:48:16;;;;;;;;;2.75;0.75;;;;;16.69;77.76;100871.69;5039618;28;46058;-46
2022/10/16 02:50:41;;;;;;;;;2.50;1.00;;;;;16.66;77.66;100871.22;5039709;28;45377;-45
2022/10/16 02:53:07;;;;;;;;;0.00;0.00;;;;;16.69;77.13;100881.59;5039734;28;45494;-48
2022/10/16 02:55:32;;;;;;;;;0.75;0.75;;;;;16.63;77.17;100891.19;5039310;28;45376;-46
2022/10/16 02:57:57;;;;;;;;;1.00;1.00;;;;;16.62;76.95;100892.22;5039130;28;45980;-45
2022/10/16 03:00:23;;;;;;;;;2.00;0.25;;;;;16.61;77.70;100887.03;5039324;28;45234;-47
2022/10/16 03:02:48;;;;;;;;;1.00;1.00;;;;;16.60;77.30;100891.59;5039306;28;45222;-48
2022/10/16 03:05:14;;;;;;;;;1.00;1.00;;;;;16.65;77.13;100891.03;5039543;28;45257;-47
2022/10/16 03:07:39;;;;;;;;;1.25;1.25;;;;;16.64;76.99;100908.13;5038957;28;45991;-46
2022/10/16 03:10:06;;;;;;;;;1.00;1.00;;;;;16.64;77.02;100898.25;5038990;28;45328;-44
2022/10/16 03:12:31;;;;;;;;;2.00;0.00;;;;;16.62;76.69;100897.59;5039204;28;45277;-46
2022/10/16 03:14:57;;;;;;;;;1.50;1.50;;;;;16.62;76.62;100900.28;5039031;28;45247;-46
2022/10/16 03:17:23;;;;;;;;;1.00;1.00;;;;;16.63;76.72;100898.41;5038809;28;46817;-48
2022/10/16 03:19:49;;;;;;;;;0.00;0.00;;;;;16.65;76.22;100905.28;5038946;28;45519;-48
2022/10/16 03:22:14;;;;;;;;;0.00;0.00;;;;;16.63;76.04;100909.16;5038951;28;45303;-45
2022/10/16 03:24:39;;;;;;;;;0.00;0.00;;;;;16.60;76.20;100899.63;5038138;28;45315;-49
2022/10/16 03:27:05;;;;;;;;;0.75;0.75;;;;;16.61;75.87;100905.84;5038648;28;46250;-48
2022/10/16 03:29:31;;;;;;;;;1.50;1.00;;;;;16.54;76.05;100904.88;5038427;28;45316;-45
2022/10/16 03:31:57;;;;;;;;;1.00;1.00;;;;;16.53;75.81;100908.59;5039032;28;45482;-44
2022/10/16 03:34:22;;;;;;;;;0.50;0.50;;;;;16.51;75.98;100889.97;5039209;28;45339;-46
2022/10/16 03:36:48;;;;;;;;;0.00;0.00;;;;;16.52;75.65;100874.69;5039017;28;45974;-45
2022/10/16 03:39:13;;;;;;;;;1.00;1.00;;;;;16.49;75.76;100867.00;5038496;28;45451;-47
2022/10/16 03:41:39;;;;;;;;;3.50;1.00;;;;;16.44;75.81;100857.66;5038852;28;45349;-46
2022/10/16 03:44:04;;;;;;;;;0.00;0.00;;;;;16.37;75.80;100872.81;5038983;28;45336;-46
2022/10/16 03:46:30;;;;;;;;;2.75;1.00;;;;;16.35;75.91;100874.00;5038225;28;46275;-47
2022/10/16 03:48:55;;;;;;;;;0.50;0.00;;;;;16.28;76.09;100873.06;5038731;28;45384;-46
2022/10/16 03:51:20;;;;;;;;;0.00;0.00;;;;;16.31;76.19;100878.91;5038435;28;45211;-50
2022/10/16 03:53:46;;;;;;;;;0.75;0.75;;;;;16.27;76.45;100885.66;5038743;28;45293;-49
2022/10/16 03:56:11;;;;;;;;;0.00;0.00;;;;;16.32;76.09;100894.00;5037926;28;45324;-46
2022/10/16 03:58:36;;;;;;;;;2.00;1.00;;;;;16.36;75.93;100887.25;5038337;28;45198;-46
2022/10/16 04:01:02;;;;;;;;;2.00;0.00;;;;;16.39;75.97;100891.41;5038640;28;45337;-45
2022/10/16 04:03:27;;;;;;;;;0.00;0.00;;;;;16.41;75.73;100900.97;5038461;28;45253;-45
2022/10/16 04:05:53;;;;;;;;;2.75;1.00;;;;;16.45;75.54;100891.53;5038329;28;45970;-45
2022/10/16 04:08:18;;;;;;;;;1.50;0.00;;;;;16.48;75.51;100884.97;5039615;28;45419;-47
2022/10/16 04:10:44;;;;;;;;;2.00;0.00;;;;;16.47;75.62;100877.91;5039427;28;45307;-48
2022/10/16 04:13:09;;;;;;;;;1.25;0.00;;;;;16.46;75.45;100885.13;5039359;28;45342;-49
2022/10/16 04:15:35;;;;;;;;;0.00;0.00;;;;;16.49;75.42;100888.50;5038308;28;46182;-46
2022/10/16 04:18:00;;;;;;;;;0.00;0.00;;;;;16.51;75.49;100886.44;5038529;28;45340;-44
2022/10/16 04:20:26;;;;;;;;;0.00;0.00;;;;;16.42;75.30;100881.16;5038674;28;45254;-46
2022/10/16 04:22:51;;;;;;;;;0.00;0.00;;;;;16.52;75.13;100894.34;5038577;28;45412;-45
2022/10/16 04:25:16;;;;;;;;;0.00;0.00;;;;;16.53;75.46;100893.31;5037802;28;46266;-45
2022/10/16 04:27:42;;;;;;;;;0.00;0.00;;;;;16.55;75.46;100895.81;5019945;28;45410;-45
2022/10/16 04:30:07;;;;;;;;;0.00;0.00;;;;;16.56;75.41;100894.78;5037896;28;45308;-45
2022/10/16 04:32:33;;;;;;;;;1.00;0.00;;;;;16.56;75.61;100908.22;5038048;28;45433;-45
2022/10/16 04:34:58;;;;;;;;;0.75;0.00;;;;;16.53;75.22;100908.59;5037340;28;46717;-44
2022/10/16 04:37:27;;;;;;;;;0.00;0.00;;;;;16.58;75.46;100912.41;5019914;28;45249;-45
2022/10/16 04:39:53;;;;;;;;;0.00;0.00;;;;;16.58;75.48;100920.47;5038205;28;45297;-46
2022/10/16 04:42:19;;;;;;;;;0.00;0.00;;;;;16.60;75.50;100939.06;5037991;28;45495;-45
2022/10/16 04:44:45;;;;;;;;;0.00;0.00;;;;;16.58;75.67;100939.25;5036622;28;46392;-48
2022/10/16 04:47:10;;;;;;;;;0.00;0.00;;;;;16.61;75.36;100944.28;5037197;28;45510;-44
2022/10/16 04:49:35;;;;;;;;;0.00;0.00;;;;;16.60;75.36;100942.63;5037881;28;45278;-45
2022/10/16 04:52:01;;;;;;;;;0.00;0.00;;;;;16.59;75.71;100935.53;5037718;28;45471;-46
2022/10/16 04:54:26;;;;;;;;;0.00;0.00;;;;;16.24;75.25;100888.69;5037231;28;46121;-45
2022/10/16 04:56:51;;;;;;;;;0.00;0.00;;;;;16.61;75.55;100964.94;5037088;28;45402;-46
2022/10/16 04:59:19;;;;;;;;;0.25;0.00;;;;;16.59;75.47;100962.41;5036905;28;45389;-45
2022/10/16 05:01:44;;;;;;;;;0.00;0.00;;;;;16.55;75.40;100950.34;5038377;28;45438;-46
2022/10/16 05:04:10;;;;;;;;;2.00;0.00;;;;;16.62;75.29;100970.09;5036940;28;45281;-45
2022/10/16 05:06:38;;;;;;;;;0.00;0.00;;;;;16.63;75.29;100979.00;5037127;28;45273;-48
2022/10/16 05:09:06;;;;;;;;;0.00;0.00;;;;;16.57;75.09;100971.69;5036483;28;45388;-45
2022/10/16 05:11:32;;;;;;;;;0.00;0.00;;;;;16.65;75.29;100985.03;5037342;28;45408;-46
2022/10/16 05:13:57;;;;;;;;;0.00;0.00;;;;;16.63;75.49;100981.69;5037082;28;45338;-46
2022/10/16 05:16:23;;;;;;;;;1.00;1.00;;;;;16.63;75.71;100979.84;5036933;28;45412;-45
2022/10/16 05:18:48;;;;;;;;;0.75;0.00;;;;;16.61;75.58;100968.44;5037347;28;45310;-48
2022/10/16 05:21:13;;;;;;;;;1.00;0.00;;;;;16.60;75.67;100977.53;5037373;28;45447;-49
2022/10/16 05:23:39;;;;;;;;;0.75;0.75;;;;;16.57;75.60;100977.88;5037068;28;46864;-45
2022/10/16 05:26:04;;;;;;;;;0.00;0.00;;;;;16.60;75.55;100995.47;5037033;28;45222;-47
2022/10/16 05:28:30;;;;;;;;;0.00;0.00;;;;;16.58;75.50;101001.03;5037082;28;45381;-46
2022/10/16 05:30:56;;;;;;;;;0.00;0.00;;;;;16.58;75.88;101006.41;5037144;28;45442;-46
2022/10/16 05:33:24;;;;;;;;;2.50;0.00;;;;;16.59;76.00;101009.91;5036784;28;46181;-45
2022/10/16 05:35:50;;;;;;;;;1.00;1.00;;;;;16.58;76.04;101008.25;5036671;28;45426;-44
2022/10/16 05:38:17;;;;;;;;;0.75;0.75;;;;;16.56;76.16;101011.13;5036940;28;45289;-45
2022/10/16 05:40:42;;;;;;;;;2.50;1.00;;;;;16.57;75.82;101012.78;5037023;28;45285;-47
2022/10/16 05:43:08;;;;;;;;;0.75;0.75;;;;;16.54;76.33;101007.78;5036740;28;46105;-46
2022/10/16 05:45:34;;;;;;;;;0.75;0.75;;;;;16.48;76.30;100988.88;5036916;28;45325;-46
2022/10/16 05:47:59;;;;;;;;;1.00;0.00;;;;;16.48;76.46;100996.94;5036922;28;45640;-47
2022/10/16 05:50:25;;;;;;;;;1.00;1.00;;;;;16.46;76.49;101003.28;5036982;28;45364;-48
2022/10/16 05:52:50;;;;;;;;;1.50;1.25;;;;;16.45;76.85;101014.22;5036668;28;46598;-46
2022/10/16 05:55:15;;;;;;;;;1.25;1.25;;;;;16.41;77.57;100996.78;5036343;28;45254;-48
2022/10/16 05:57:41;;;;;;;;;2.00;2.00;;;;;16.44;77.17;101001.81;5036958;28;45178;-47
2022/10/16 06:00:07;;;;;;;;;3.00;1.00;;;;;16.44;77.61;100991.91;5036667;28;45334;-45
2022/10/16 06:02:32;;;;;;;;;4.00;1.25;;;;;16.43;77.18;101005.50;5036461;28;46010;-47
2022/10/16 06:04:57;;;;;;;;;2.00;2.00;;;;;16.41;77.64;101011.06;5036750;28;45356;-46
2022/10/16 06:07:23;;;;;;;;;3.75;1.75;;;;;16.43;77.85;101016.22;5036340;28;45387;-46
2022/10/16 06:09:49;;;;;;;;;4.25;2.25;;;;;16.41;77.65;100997.63;5037623;28;45485;-48
2022/10/16 06:12:15;;;;;;;;;2.00;2.00;;;;;16.38;77.90;101007.88;5039919;28;45427;-48
2022/10/16 06:14:41;;;;;;;;;3.00;1.25;;;;;16.33;78.01;101003.06;5039483;28;45574;-46
2022/10/16 06:17:06;;;;;;;;;2.00;0.75;;;;;16.28;78.49;101008.13;5039790;28;45391;-48
2022/10/16 06:19:31;;;;;;;;;2.00;2.00;;;;;16.28;78.73;101001.94;5040357;28;45364;-47
2022/10/16 06:21:58;;;;;;;;;3.50;2.00;;;;;16.26;78.72;101007.44;5038918;28;45400;-46
2022/10/16 06:24:24;;;;;;;;;3.00;2.00;;;;;16.25;79.00;101013.84;5039964;28;45409;-47
2022/10/16 06:26:49;;;;;;;;;1.75;1.50;;;;;16.25;79.22;101008.47;5039723;28;45333;-46
2022/10/16 06:29:14;;;;;;;;;4.50;3.00;;;;;16.18;79.15;100996.75;5040056;28;45209;-47
2022/10/16 06:31:40;;;;;;;;;2.00;2.00;;;;;16.17;79.13;100979.81;5039661;28;45808;-46
2022/10/16 06:34:09;;;;;;;;;3.50;1.00;;;;;16.29;79.15;101006.28;5039866;28;45302;-50
2022/10/16 06:36:34;;;;;;;;;2.00;2.00;;;;;16.29;79.11;100995.53;5039785;28;45418;-46
2022/10/16 06:39:00;;;;;;;;;2.75;2.50;;;;;16.28;79.35;100997.38;5039897;28;45362;-47
2022/10/16 06:41:25;;;;;;;;;1.00;1.00;;;;;16.20;79.37;101000.13;5039505;28;47047;-46
2022/10/16 06:43:52;;;;;;;;;1.00;0.75;;;;;16.20;79.58;100998.28;5039582;28;45237;-47
2022/10/16 06:46:20;;;;;;;;;2.50;2.00;;;;;16.24;79.36;101009.50;5039627;28;45432;-48
2022/10/16 06:48:46;;;;;;;;;1.25;1.25;;;;;16.17;79.17;101003.16;5031910;28;45305;-48
2022/10/16 06:51:14;;;;;;;;;4.00;2.50;;;;;16.26;78.90;101022.72;5039347;28;45368;-46
2022/10/16 06:53:41;;;;;;;;;2.75;2.75;;;;;16.20;79.29;101022.44;5039464;28;45355;-47
2022/10/16 06:56:20;;;;;;;;;3.50;2.00;;;;;16.10;79.45;101019.13;5039192;28;45332;-49
2022/10/16 06:58:45;;;;;;;;;2.00;2.00;;;;;16.17;80.05;101043.41;5039499;28;45425;-46
2022/10/16 07:01:12;;;;;;;;;3.00;2.75;;;;;16.16;80.31;101047.13;5039075;28;46281;-47
2022/10/16 07:03:39;;;;;;;;;4.00;3.00;;;;;16.15;79.91;101057.00;5039102;28;45444;-45
2022/10/16 07:06:07;;;;;;;;;3.25;2.00;;;;;16.21;80.23;101060.84;5039341;28;45433;-45
2022/10/16 07:08:34;;;;;;;;;4.50;2.75;;;;;16.27;80.05;101051.25;5039377;28;45325;-50
2022/10/16 07:11:05;;;;;;;;;2.75;2.75;;;;;16.26;79.99;101038.81;5038931;28;46446;-48
2022/10/16 07:13:33;;;;;;;;;3.75;3.00;;;;;16.51;79.42;101056.47;5038874;28;45496;-48
2022/10/16 07:16:04;;;;;;;;;3.75;3.75;;;;;16.60;79.10;101070.66;5038130;28;45461;-46
2022/10/16 07:18:32;;;;;;;;;5.50;3.75;;;;;16.69;79.08;101059.72;5039799;28;45393;-45
2022/10/16 07:21:04;;;;;;;;;10.25;4.25;;;;;16.77;78.92;101066.06;5038489;28;46055;-46
2022/10/16 07:23:29;;;;;;;;;3.50;3.50;;;;;16.84;78.53;101056.25;5038984;28;45310;-47
2022/10/16 07:25:55;;;;;;;;;6.50;5.50;;;;;17.07;78.01;101061.63;5038841;28;45338;-47
2022/10/16 07:28:21;;;;;;;;;5.50;5.50;;;;;17.18;77.57;101075.44;5038961;28;45437;-47
2022/10/16 07:30:46;;;;;;;;;5.25;5.25;;;;;17.38;76.89;101075.78;5038569;28;45388;-47
2022/10/16 07:33:11;;;;;;;;;6.25;6.25;;;;;17.54;76.34;101072.09;5038685;28;45415;-47
2022/10/16 07:35:36;;;;;;;;;7.00;6.00;;;;;17.62;75.65;101080.09;5037531;28;45396;-46
2022/10/16 07:38:02;;;;;;;;;6.75;5.75;;;;;17.33;75.67;101031.66;5038775;28;45348;-48
2022/10/16 07:40:27;;;;;;;;;7.50;5.50;;;;;17.65;75.43;101082.38;5038554;28;46351;-44
2022/10/16 07:42:53;;;;;;;;;9.00;6.00;;;;;17.73;75.38;101088.69;5038526;28;45403;-48
2022/10/16 07:45:18;;;;;;;;;7.00;5.00;;;;;17.75;75.14;101097.47;5038627;28;45445;-48
2022/10/16 07:47:43;;;;;;;;;6.75;6.75;;;;;17.84;75.13;101104.44;5038903;28;45463;-47
2022/10/16 07:50:08;;;;;;;;;6.75;5.50;;;;;17.85;74.70;101098.84;5038524;28;46283;-47
2022/10/16 07:52:34;;;;;;;;;6.50;5.75;;;;;17.88;74.64;101111.94;5038610;28;45301;-45
2022/10/16 07:54:59;;;;;;;;;6.00;5.00;;;;;17.93;74.67;101101.44;5038241;28;45167;-48
2022/10/16 07:57:24;;;;;;;;;7.00;5.00;;;;;18.02;74.55;101101.34;5038507;28;45348;-47
2022/10/16 07:59:50;;;;;;;;;6.25;5.50;;;;;18.19;73.36;101090.19;5038046;28;46093;-46
2022/10/16 08:02:15;;;;;;;;;5.00;4.25;;;;;18.43;72.48;101093.59;5038105;28;45281;-47
2022/10/16 08:04:41;;;;;;;;;6.50;5.00;;;;;18.61;71.68;101098.53;5037090;28;45253;-47
2022/10/16 08:07:08;;;;;;;;;5.00;4.00;;;;;18.75;71.09;101113.88;5038453;28;45245;-48
2022/10/16 08:09:33;;;;;;;;;3.75;3.75;;;;;18.86;70.56;101120.59;5038062;28;47142;-46
2022/10/16 08:11:58;;;;;;;;;4.00;4.00;;;;;18.96;69.73;101126.50;5037979;28;45521;-47
2022/10/16 08:14:24;;;;;;;;;1.25;1.25;;;;;19.05;69.08;101136.16;5038329;28;45623;-47
2022/10/16 08:16:49;;;;;;;;;2.50;2.00;;;;;19.22;68.53;101131.34;5038304;28;45413;-44
2022/10/16 08:19:15;;;;;;;;;4.25;4.00;;;;;19.33;68.59;101136.19;5037937;28;46061;-46
2022/10/16 08:21:40;;;;;;;;;3.00;3.00;;;;;19.37;67.68;101123.16;5037989;28;45345;-45
2022/10/16 08:24:06;;;;;;;;;4.00;4.00;;;;;19.44;67.26;101126.75;5038051;28;45465;-46
2022/10/16 08:26:31;;;;;;;;;5.00;5.00;;;;;19.35;67.73;101114.44;5038283;28;45225;-47
2022/10/16 08:28:56;;;;;;;;;3.25;3.25;;;;;19.34;67.32;101123.53;5037725;28;47143;-49
2022/10/16 08:31:22;;;;;;;;;8.00;5.25;;;;;19.52;67.32;101129.28;5037865;28;45432;-47
2022/10/16 08:33:48;;;;;;;;;5.00;4.00;;;;;19.84;65.54;101100.88;5036675;28;45320;-48
2022/10/16 08:36:14;;;;;;;;;4.00;3.00;;;;;20.00;65.12;101128.59;5037837;28;45340;-47
2022/10/16 08:38:40;;;;;;;;;4.20;3.00;;;;;20.00;65.16;101110.53;5032314;28;45273;-48
2022/10/16 08:41:24;;;;;;;;;4.75;4.00;;;;;20.31;64.39;101128.97;5034030;28;45519;-47
2022/10/16 08:43:55;;;;;;;;;3.00;3.00;;;;;21.09;62.65;101126.69;5013961;28;45492;-50
2022/10/16 08:46:45;;;;;;;;;3.50;3.50;;;;;20.72;62.65;101121.84;5036816;28;45567;-46
2022/10/16 08:49:15;;;;;;;;;5.60;5.60;;;;;20.39;63.45;101127.94;5037292;28;46145;-45
2022/10/16 08:51:41;;;;;;;;;4.40;4.00;;;;;20.07;64.27;101129.47;5037213;28;45449;-48
2022/10/16 08:54:31;;;;;;;;;5.00;5.00;;;;;19.89;65.17;101130.00;5037523;28;45366;-47
2022/10/16 08:57:11;;;;;;;;;3.00;3.00;;;;;19.85;65.75;101134.13;5037294;28;45190;-49
2022/10/16 08:59:36;;;;;;;;;7.00;5.00;;;;;20.03;64.91;101130.91;5037219;28;47183;-46
2022/10/16 09:02:11;;;;;;;;;3.00;3.00;;;;;20.03;65.00;101134.44;5036894;28;45494;-47
2022/10/16 09:05:03;;;;;;;;;6.20;5.00;;;;;20.32;64.65;101132.50;5018841;28;45478;-47
2022/10/16 09:07:35;;;;;;;;;4.00;4.00;;;;;20.53;64.32;101137.00;5037255;28;45608;-49
2022/10/16 09:10:00;;;;;;;;;5.40;5.20;;;;;20.83;63.43;101135.59;5037094;28;46035;-49
2022/10/16 09:13:04;;;;;;;;;5.50;5.00;;;;;21.16;61.30;101142.97;5037094;28;45332;-48
2022/10/16 09:15:39;;;;;;;;;6.20;4.80;;;;;22.22;59.09;101142.06;5013358;28;45574;-48
2022/10/16 09:18:19;;;;;;;;;6.00;6.00;;;;;22.99;57.53;101149.19;5037151;28;45320;-50
2022/10/16 09:20:59;;;;;;;;;5.40;4.40;;;;;23.80;54.96;101134.75;5036692;28;47085;-46
2022/10/16 09:23:35;;;;;;;;;5.40;5.40;;;;;24.47;54.45;101128.59;5036921;28;45318;-48
2022/10/16 09:26:02;;;;;;;;;4.80;4.80;;;;;25.30;50.94;101125.91;5037023;28;45455;-49
2022/10/16 09:28:28;;;;;;;;;3.60;3.60;;;;;26.25;49.70;101132.16;5037364;28;45167;-50
2022/10/16 09:30:54;;;;;;;;;2.00;2.00;;;;;27.33;45.77;101136.66;5036759;28;45631;-49
2022/10/16 09:33:24;;;;;;;;;5.00;3.75;;;;;28.41;43.28;101133.59;5036880;28;45751;-50
2022/10/16 09:35:55;;;;;;;;;3.00;3.00;;;;;28.98;42.13;101135.84;5036949;28;45312;-46
2022/10/16 09:38:29;;;;;;;;;3.60;1.80;;;;;28.76;42.56;101129.56;5037092;28;45499;-47
2022/10/16 09:40:58;;;;;;;;;2.00;2.00;;;;;29.20;41.42;101123.97;5036786;28;46207;-49
2022/10/16 09:43:36;;;;;;;;;4.00;4.00;;;;;29.92;40.31;101139.00;5018710;28;45473;-49
2022/10/16 09:46:34;;;;;;;;;1.80;1.80;;;;;30.77;38.69;101158.91;5036949;28;45229;-48
2022/10/16 09:49:04;;;;;;;;;1.80;1.80;;;;;30.16;38.27;101147.66;5036941;28;45294;-48
2022/10/16 09:51:35;;;;;;;;;2.00;2.00;;;;;29.14;39.36;101146.94;5036512;28;46982;-50
2022/10/16 09:54:06;;;;;;;;;2.00;2.00;;;;;28.41;39.92;101139.06;5036650;28;45304;-49
2022/10/16 09:56:35;;;;;;;;;2.80;1.80;;;;;27.65;41.52;101143.47;5036131;28;45300;-49
2022/10/16 09:59:08;;;;;;;;;2.00;2.00;;;;;26.94;43.05;101138.44;5036855;28;45373;-49
2022/10/16 10:01:44;;;;;;;;;0.80;0.80;;;;;26.41;44.33;101145.03;5036345;28;46034;-48
2022/10/16 10:04:10;;;;;;;;;2.00;2.00;;;;;25.89;45.40;101131.41;5036384;28;45289;-48
2022/10/16 10:06:48;;;;;;;;;3.00;2.50;;;;;25.50;46.91;101111.13;5036520;28;45460;-48
2022/10/16 10:09:31;;;;;;;;;1.80;1.80;;;;;25.81;46.99;101118.97;5036903;28;45466;-49
2022/10/16 10:12:02;;;;;;;;;2.00;2.00;;;;;25.96;45.91;101112.19;5036340;28;45500;-47
2022/10/16 10:14:43;;;;;;;;;2.80;2.00;;;;;26.04;45.98;101099.03;5036069;28;45448;-48
2022/10/16 10:17:08;;;;;;;;;0.80;0.80;;;;;26.38;45.89;101107.34;5035458;28;45462;-48
2022/10/16 10:19:55;;;;;;;;;3.00;2.00;;;;;27.98;43.32;101099.66;5036391;28;45434;-46
2022/10/16 10:22:25;;;;;;;;;1.80;1.80;;;;;29.65;39.81;101104.31;5035868;28;45485;-50
2022/10/16 10:24:57;;;;;;;;;1.60;1.60;;;;;30.88;37.45;101097.38;5035947;28;45345;-49
2022/10/16 10:27:32;;;;;;;;;1.40;1.40;;;;;30.83;38.05;101091.06;5036255;28;45372;-46
2022/10/16 10:30:09;;;;;;;;;3.60;0.80;;;;;29.47;39.44;101100.06;5036290;28;45372;-48
2022/10/16 10:32:52;;;;;;;;;2.40;2.40;;;;;28.27;41.07;101104.91;5035662;28;47192;-46
2022/10/16 10:35:59;;;;;;;;;2.40;2.40;;;;;27.14;43.88;101104.38;5035918;28;45250;-46
2022/10/16 10:38:30;;;;;;;;;2.00;2.00;;;;;26.21;44.08;101115.47;4954908;28;45749;-48
2022/10/16 10:41:14;;;;;;;;;1.00;1.00;;;;;25.40;46.19;101119.88;4955167;28;45538;-46
2022/10/16 10:44:03;;;;;;;;;1.00;1.00;;;;;24.87;48.31;101112.56;4954670;28;46341;-46
2022/10/16 10:46:55;;;;;;;;;0.80;0.80;;;;;24.34;49.20;101110.53;4955144;28;45329;-47
2022/10/16 10:49:32;;;;;;;;;2.00;2.00;;;;;23.93;49.95;101117.47;4938507;28;45361;-50
2022/10/16 10:52:20;;;;;;;;;1.20;1.00;;;;;23.57;51.22;101121.78;4938856;28;45407;-48
2022/10/16 10:54:57;;;;;;;;;1.80;1.40;;;;;23.14;52.35;101114.44;4954579;28;46146;-47
2022/10/16 10:57:29;;;;;;;;;0.00;0.00;;;;;22.75;53.23;101117.38;4957620;28;45515;-48
2022/10/16 11:00:10;;;;;;;;;2.60;1.60;;;;;22.50;54.06;101115.47;4958274;28;45191;-48
2022/10/16 11:02:45;;;;;;;;;5.80;1.60;;;;;22.31;54.16;101117.19;4942043;28;45564;-46
2022/10/16 11:05:33;;;;;;;;;3.80;2.00;;;;;21.96;55.29;101110.44;4957939;28;45469;-44
2022/10/16 11:08:10;;;;;;;;;1.80;1.80;;;;;21.65;56.04;101110.06;4957507;28;45489;-48
2022/10/16 11:10:48;;;;;;;;;0.00;0.00;;;;;21.45;57.48;101097.59;4957959;28;45454;-47
2022/10/16 11:13:26;;;;;;;;;1.00;1.00;;;;;21.39;57.78;101094.69;4957996;28;45475;-46
2022/10/16 11:15:56;;;;;;;;;1.20;0.00;;;;;21.55;57.76;101093.41;4988784;28;46111;-46
2022/10/16 11:18:35;;;;;;;;;1.00;1.00;;;;;21.74;56.72;101102.53;4996798;28;45421;-48
2022/10/16 11:21:09;;;;;;;;;0.60;0.60;;;;;21.81;56.86;101094.41;4996941;28;45380;-49
2022/10/16 11:23:48;;;;;;;;;1.60;1.00;;;;;22.04;56.37;101088.53;4997272;28;45231;-50
2022/10/16 11:26:19;;;;;;;;;1.00;1.00;;;;;22.28;56.04;101089.69;5015394;28;47183;-48
2022/10/16 11:28:49;;;;;;;;;1.00;1.00;;;;;22.51;55.91;101089.19;5038516;28;45261;-47
2022/10/16 11:31:39;;;;;;;;;1.00;1.00;;;;;22.66;55.08;101090.53;5038814;28;45340;-47
2022/10/16 11:34:40;;;;;;;;;1.60;1.20;;;;;22.76;54.73;101094.66;5038795;28;45894;-46